sensor_id;sensor_type;location;lat;lon;timestamp;temperature;humidity
11577;DHT22;5844;51.496;6.788;2023-07-31T00:00:27;16.20;1.00
11577;DHT22;5844;51.496;6.788;2023-07-31T00:02:53;16.30;1.00
11577;DHT22;5844;51.496;6.788;2023-07-31T00:05:19;16.30;1.00
11577;DHT22;5844;51.496;6.788;2023-07-31T00:07:45;16.30;1.00
11577;DHT22;5844;51.496;6.788;2023-07-31T00:10:10;16.30;1.00
11577;DHT22;5844;51.496;6.788;2023-07-31T00:12:37;16.30;1.00
11577;DHT22;5844;51.496;6.788;2023-07-31T00:15:03;16.30;1.00
11577;DHT22;5844;51.496;6.788;2023-07-31T00:17:30;16.40;1.00
11577;DHT22;5844;51.496;6.788;2023-07-31T00:19:55;16.30;1.00
11577;DHT22;5844;51.496;6.788;2023-07-31T00:22:21;16.40;1.00
11577;DHT22;5844;51.496;6.788;2023-07-31T00:24:46;16.40;1.00
11577;DHT22;5844;51.496;6.788;2023-07-31T00:27:12;16.40;1.00
11577;DHT22;5844;51.496;6.788;2023-07-31T00:29:38;16.40;1.00
11577;DHT22;5844;51.496;6.788;2023-07-31T00:32:04;16.30;1.00
11577;DHT22;5844;51.496;6.788;2023-07-31T00:34:29;16.30;1.00
11577;DHT22;5844;51.496;6.788;2023-07-31T00:36:55;16.30;1.00
11577;DHT22;5844;51.496;6.788;2023-07-31T00:39:20;16.30;1.00
11577;DHT22;5844;51.496;6.788;2023-07-31T00:41:46;16.30;1.00
11577;DHT22;5844;51.496;6.788;2023-07-31T00:44:12;16.30;1.00
11577;DHT22;5844;51.496;6.788;2023-07-31T00:46:37;16.30;1.00
11577;DHT22;5844;51.496;6.788;2023-07-31T00:49:04;16.30;1.00
11577;DHT22;5844;51.496;6.788;2023-07-31T00:51:30;16.30;1.00
11577;DHT22;5844;51.496;6.788;2023-07-31T00:53:56;16.40;1.00
11577;DHT22;5844;51.496;6.788;2023-07-31T00:56:22;16.40;1.00
11577;DHT22;5844;51.496;6.788;2023-07-31T00:58:48;16.40;1.00
11577;DHT22;5844;51.496;6.788;2023-07-31T01:01:15;16.40;1.00
11577;DHT22;5844;51.496;6.788;2023-07-31T01:03:41;16.40;1.00
11577;DHT22;5844;51.496;6.788;2023-07-31T01:06:17;16.40;1.00
11577;DHT22;5844;51.496;6.788;2023-07-31T01:09:03;16.40;1.00
11577;DHT22;5844;51.496;6.788;2023-07-31T01:11:35;16.40;1.00
11577;DHT22;5844;51.496;6.788;2023-07-31T01:14:02;16.40;1.00
11577;DHT22;5844;51.496;6.788;2023-07-31T01:16:28;16.40;1.00
11577;DHT22;5844;51.496;6.788;2023-07-31T01:18:54;16.40;1.00
11577;DHT22;5844;51.496;6.788;2023-07-31T01:24:35;16.40;1.00
11577;DHT22;5844;51.496;6.788;2023-07-31T01:27:12;16.30;1.00
11577;DHT22;5844;51.496;6.788;2023-07-31T01:32:14;16.40;1.00
11577;DHT22;5844;51.496;6.788;2023-07-31T01:34:42;16.40;1.00
11577;DHT22;5844;51.496;6.788;2023-07-31T01:37:09;16.40;1.00
11577;DHT22;5844;51.496;6.788;2023-07-31T01:39:34;16.40;1.00
11577;DHT22;5844;51.496;6.788;2023-07-31T01:42:00;16.40;1.00
11577;DHT22;5844;51.496;6.788;2023-07-31T01:44:25;16.40;1.00
11577;DHT22;5844;51.496;6.788;2023-07-31T01:46:51;16.30;1.00
11577;DHT22;5844;51.496;6.788;2023-07-31T01:49:16;16.30;1.00
11577;DHT22;5844;51.496;6.788;2023-07-31T01:51:42;16.30;1.00
11577;DHT22;5844;51.496;6.788;2023-07-31T01:54:08;16.30;1.00
11577;DHT22;5844;51.496;6.788;2023-07-31T01:56:33;16.30;1.00
11577;DHT22;5844;51.496;6.788;2023-07-31T01:58:59;16.30;1.00
11577;DHT22;5844;51.496;6.788;2023-07-31T02:01:24;16.30;1.00
11577;DHT22;5844;51.496;6.788;2023-07-31T02:03:50;16.30;1.00
11577;DHT22;5844;51.496;6.788;2023-07-31T02:06:16;16.30;1.00
11577;DHT22;5844;51.496;6.788;2023-07-31T02:08:41;16.40;1.00
11577;DHT22;5844;51.496;6.788;2023-07-31T02:11:07;16.40;1.00
11577;DHT22;5844;51.496;6.788;2023-07-31T02:13:32;16.40;1.00
11577;DHT22;5844;51.496;6.788;2023-07-31T02:15:58;16.40;1.00
11577;DHT22;5844;51.496;6.788;2023-07-31T02:18:24;16.50;1.00
11577;DHT22;5844;51.496;6.788;2023-07-31T02:20:52;16.50;1.00
11577;DHT22;5844;51.496;6.788;2023-07-31T02:23:19;16.50;1.00
11577;DHT22;5844;51.496;6.788;2023-07-31T02:25:45;16.50;1.00
11577;DHT22;5844;51.496;6.788;2023-07-31T02:28:10;16.50;1.00
11577;DHT22;5844;51.496;6.788;2023-07-31T02:30:36;16.50;1.00
11577;DHT22;5844;51.496;6.788;2023-07-31T02:33:02;16.50;1.00
11577;DHT22;5844;51.496;6.788;2023-07-31T02:35:27;16.60;1.00
11577;DHT22;5844;51.496;6.788;2023-07-31T02:37:53;16.60;1.00
11577;DHT22;5844;51.496;6.788;2023-07-31T02:40:19;16.60;1.00
11577;DHT22;5844;51.496;6.788;2023-07-31T02:42:44;16.60;1.00
11577;DHT22;5844;51.496;6.788;2023-07-31T02:45:10;16.60;1.00
11577;DHT22;5844;51.496;6.788;2023-07-31T02:47:36;16.60;1.00
11577;DHT22;5844;51.496;6.788;2023-07-31T02:50:05;16.60;1.00
11577;DHT22;5844;51.496;6.788;2023-07-31T02:52:31;16.60;1.00
11577;DHT22;5844;51.496;6.788;2023-07-31T02:54:57;16.60;1.00
11577;DHT22;5844;51.496;6.788;2023-07-31T02:57:23;16.70;1.00
11577;DHT22;5844;51.496;6.788;2023-07-31T02:59:48;16.70;1.00
11577;DHT22;5844;51.496;6.788;2023-07-31T03:02:14;16.70;1.00
11577;DHT22;5844;51.496;6.788;2023-07-31T03:04:40;16.70;1.00
11577;DHT22;5844;51.496;6.788;2023-07-31T03:07:05;16.70;1.00
11577;DHT22;5844;51.496;6.788;2023-07-31T03:09:31;16.70;1.00
11577;DHT22;5844;51.496;6.788;2023-07-31T03:11:57;16.70;1.00
11577;DHT22;5844;51.496;6.788;2023-07-31T03:14:22;16.70;1.00
11577;DHT22;5844;51.496;6.788;2023-07-31T03:16:48;16.70;1.00
11577;DHT22;5844;51.496;6.788;2023-07-31T03:19:14;16.70;1.00
11577;DHT22;5844;51.496;6.788;2023-07-31T03:21:40;16.80;1.00
11577;DHT22;5844;51.496;6.788;2023-07-31T03:24:06;16.80;1.00
11577;DHT22;5844;51.496;6.788;2023-07-31T03:26:32;16.80;1.00
11577;DHT22;5844;51.496;6.788;2023-07-31T03:28:59;16.80;1.00
11577;DHT22;5844;51.496;6.788;2023-07-31T03:31:24;16.80;1.00
11577;DHT22;5844;51.496;6.788;2023-07-31T03:33:50;16.80;1.00
11577;DHT22;5844;51.496;6.788;2023-07-31T03:36:15;16.80;1.00
11577;DHT22;5844;51.496;6.788;2023-07-31T03:38:42;16.90;1.00
11577;DHT22;5844;51.496;6.788;2023-07-31T03:41:08;16.90;1.00
11577;DHT22;5844;51.496;6.788;2023-07-31T03:43:35;16.90;1.00
11577;DHT22;5844;51.496;6.788;2023-07-31T03:46:01;16.90;1.00
11577;DHT22;5844;51.496;6.788;2023-07-31T03:48:28;16.90;1.00
11577;DHT22;5844;51.496;6.788;2023-07-31T03:50:54;16.90;1.00
11577;DHT22;5844;51.496;6.788;2023-07-31T03:53:20;16.90;1.00
11577;DHT22;5844;51.496;6.788;2023-07-31T03:55:45;17.00;1.00
11577;DHT22;5844;51.496;6.788;2023-07-31T03:58:11;17.00;1.00
11577;DHT22;5844;51.496;6.788;2023-07-31T04:00:37;17.10;1.00
11577;DHT22;5844;51.496;6.788;2023-07-31T04:03:02;17.10;1.00
11577;DHT22;5844;51.496;6.788;2023-07-31T04:05:31;17.10;1.00
11577;DHT22;5844;51.496;6.788;2023-07-31T04:07:56;17.10;1.00
11577;DHT22;5844;51.496;6.788;2023-07-31T04:10:22;17.20;1.00
11577;DHT22;5844;51.496;6.788;2023-07-31T04:12:48;17.20;1.00
11577;DHT22;5844;51.496;6.788;2023-07-31T04:15:14;17.20;1.00
11577;DHT22;5844;51.496;6.788;2023-07-31T04:17:39;17.20;1.00
11577;DHT22;5844;51.496;6.788;2023-07-31T04:20:05;17.20;1.00
11577;DHT22;5844;51.496;6.788;2023-07-31T04:22:31;17.20;1.00
11577;DHT22;5844;51.496;6.788;2023-07-31T04:24:57;17.20;1.00
11577;DHT22;5844;51.496;6.788;2023-07-31T04:27:22;17.20;1.00
11577;DHT22;5844;51.496;6.788;2023-07-31T04:29:48;17.20;1.00
11577;DHT22;5844;51.496;6.788;2023-07-31T04:32:14;17.20;1.00
11577;DHT22;5844;51.496;6.788;2023-07-31T04:34:42;17.20;1.00
11577;DHT22;5844;51.496;6.788;2023-07-31T04:37:07;17.20;1.00
11577;DHT22;5844;51.496;6.788;2023-07-31T04:39:33;17.30;1.00
11577;DHT22;5844;51.496;6.788;2023-07-31T04:41:59;17.30;1.00
11577;DHT22;5844;51.496;6.788;2023-07-31T04:44:24;17.40;1.00
11577;DHT22;5844;51.496;6.788;2023-07-31T04:46:50;17.30;1.00
11577;DHT22;5844;51.496;6.788;2023-07-31T04:49:16;17.40;1.00
11577;DHT22;5844;51.496;6.788;2023-07-31T04:51:41;17.40;1.00
11577;DHT22;5844;51.496;6.788;2023-07-31T04:54:07;17.40;1.00
11577;DHT22;5844;51.496;6.788;2023-07-31T04:56:33;17.40;1.00
11577;DHT22;5844;51.496;6.788;2023-07-31T04:58:58;17.50;1.00
11577;DHT22;5844;51.496;6.788;2023-07-31T05:01:24;17.60;1.00
11577;DHT22;5844;51.496;6.788;2023-07-31T05:03:50;17.60;1.00
11577;DHT22;5844;51.496;6.788;2023-07-31T05:06:16;17.60;1.00
11577;DHT22;5844;51.496;6.788;2023-07-31T05:08:42;17.60;1.00
11577;DHT22;5844;51.496;6.788;2023-07-31T05:11:07;17.60;1.00
11577;DHT22;5844;51.496;6.788;2023-07-31T05:13:33;17.60;1.00
11577;DHT22;5844;51.496;6.788;2023-07-31T05:15:58;17.60;1.00
11577;DHT22;5844;51.496;6.788;2023-07-31T05:18:25;17.60;1.00
11577;DHT22;5844;51.496;6.788;2023-07-31T05:20:51;17.60;1.00
11577;DHT22;5844;51.496;6.788;2023-07-31T05:23:16;17.60;1.00
11577;DHT22;5844;51.496;6.788;2023-07-31T05:25:42;17.50;1.00
11577;DHT22;5844;51.496;6.788;2023-07-31T05:28:07;17.40;1.00
11577;DHT22;5844;51.496;6.788;2023-07-31T05:30:33;17.30;1.00
11577;DHT22;5844;51.496;6.788;2023-07-31T05:32:59;17.30;1.00
11577;DHT22;5844;51.496;6.788;2023-07-31T05:35:24;17.30;1.00
11577;DHT22;5844;51.496;6.788;2023-07-31T05:37:50;17.20;1.00
11577;DHT22;5844;51.496;6.788;2023-07-31T05:40:15;17.20;1.00
11577;DHT22;5844;51.496;6.788;2023-07-31T05:42:41;17.10;1.00
11577;DHT22;5844;51.496;6.788;2023-07-31T05:45:07;17.10;1.00
11577;DHT22;5844;51.496;6.788;2023-07-31T05:47:33;17.10;1.00
11577;DHT22;5844;51.496;6.788;2023-07-31T05:49:59;17.00;1.00
11577;DHT22;5844;51.496;6.788;2023-07-31T05:52:24;17.00;1.00
11577;DHT22;5844;51.496;6.788;2023-07-31T05:54:50;17.00;1.00
11577;DHT22;5844;51.496;6.788;2023-07-31T05:57:17;17.00;1.00
11577;DHT22;5844;51.496;6.788;2023-07-31T05:59:42;17.00;1.00
11577;DHT22;5844;51.496;6.788;2023-07-31T06:02:08;17.00;1.00
11577;DHT22;5844;51.496;6.788;2023-07-31T06:04:34;17.10;1.00
11577;DHT22;5844;51.496;6.788;2023-07-31T06:07:00;17.10;1.00
11577;DHT22;5844;51.496;6.788;2023-07-31T06:09:26;17.10;1.00
11577;DHT22;5844;51.496;6.788;2023-07-31T06:11:52;17.10;1.00
11577;DHT22;5844;51.496;6.788;2023-07-31T06:14:17;17.10;1.00
11577;DHT22;5844;51.496;6.788;2023-07-31T06:16:44;17.10;1.00
11577;DHT22;5844;51.496;6.788;2023-07-31T06:19:10;17.10;1.00
11577;DHT22;5844;51.496;6.788;2023-07-31T06:21:36;17.10;1.00
11577;DHT22;5844;51.496;6.788;2023-07-31T06:24:05;17.20;1.00
11577;DHT22;5844;51.496;6.788;2023-07-31T06:26:31;17.20;1.00
11577;DHT22;5844;51.496;6.788;2023-07-31T06:28:57;17.20;1.00
11577;DHT22;5844;51.496;6.788;2023-07-31T06:31:22;17.20;1.00
11577;DHT22;5844;51.496;6.788;2023-07-31T06:33:52;17.10;1.00
11577;DHT22;5844;51.496;6.788;2023-07-31T06:36:18;17.10;1.00
11577;DHT22;5844;51.496;6.788;2023-07-31T06:38:43;17.00;1.00
11577;DHT22;5844;51.496;6.788;2023-07-31T06:41:09;17.00;1.00
11577;DHT22;5844;51.496;6.788;2023-07-31T06:43:36;17.00;1.00
11577;DHT22;5844;51.496;6.788;2023-07-31T06:46:06;17.10;1.00
11577;DHT22;5844;51.496;6.788;2023-07-31T06:48:32;17.10;1.00
11577;DHT22;5844;51.496;6.788;2023-07-31T06:50:58;17.10;1.00
11577;DHT22;5844;51.496;6.788;2023-07-31T06:53:24;17.10;1.00
11577;DHT22;5844;51.496;6.788;2023-07-31T06:55:50;17.10;1.00
11577;DHT22;5844;51.496;6.788;2023-07-31T06:58:17;17.10;1.00
11577;DHT22;5844;51.496;6.788;2023-07-31T07:00:43;17.10;1.00
11577;DHT22;5844;51.496;6.788;2023-07-31T07:03:08;17.00;1.00
11577;DHT22;5844;51.496;6.788;2023-07-31T07:05:34;17.00;1.00
11577;DHT22;5844;51.496;6.788;2023-07-31T07:08:00;17.00;1.00
11577;DHT22;5844;51.496;6.788;2023-07-31T07:10:25;17.00;1.00
11577;DHT22;5844;51.496;6.788;2023-07-31T07:12:51;17.00;1.00
11577;DHT22;5844;51.496;6.788;2023-07-31T07:15:17;16.90;1.00
11577;DHT22;5844;51.496;6.788;2023-07-31T07:17:42;16.90;1.00
11577;DHT22;5844;51.496;6.788;2023-07-31T07:20:08;16.90;1.00
11577;DHT22;5844;51.496;6.788;2023-07-31T07:22:34;16.90;1.00
11577;DHT22;5844;51.496;6.788;2023-07-31T07:24:59;16.90;1.00
11577;DHT22;5844;51.496;6.788;2023-07-31T07:27:25;16.90;1.00
11577;DHT22;5844;51.496;6.788;2023-07-31T07:29:51;16.90;1.00
11577;DHT22;5844;51.496;6.788;2023-07-31T07:32:18;16.90;1.00
11577;DHT22;5844;51.496;6.788;2023-07-31T07:34:43;16.90;1.00
11577;DHT22;5844;51.496;6.788;2023-07-31T07:37:09;16.90;1.00
11577;DHT22;5844;51.496;6.788;2023-07-31T07:39:35;16.80;1.00
11577;DHT22;5844;51.496;6.788;2023-07-31T07:42:00;16.80;1.00
11577;DHT22;5844;51.496;6.788;2023-07-31T07:44:26;16.90;1.00
11577;DHT22;5844;51.496;6.788;2023-07-31T07:46:52;16.90;1.00
11577;DHT22;5844;51.496;6.788;2023-07-31T07:49:18;16.90;1.00
11577;DHT22;5844;51.496;6.788;2023-07-31T07:51:43;16.80;1.00
11577;DHT22;5844;51.496;6.788;2023-07-31T07:54:09;16.80;1.00
11577;DHT22;5844;51.496;6.788;2023-07-31T07:56:34;16.70;1.00
11577;DHT22;5844;51.496;6.788;2023-07-31T07:59:01;16.70;1.00
11577;DHT22;5844;51.496;6.788;2023-07-31T08:01:27;16.70;1.00
11577;DHT22;5844;51.496;6.788;2023-07-31T08:03:53;16.70;1.00
11577;DHT22;5844;51.496;6.788;2023-07-31T08:06:18;16.60;1.00
11577;DHT22;5844;51.496;6.788;2023-07-31T08:08:44;16.70;1.00
11577;DHT22;5844;51.496;6.788;2023-07-31T08:11:10;16.70;1.00
11577;DHT22;5844;51.496;6.788;2023-07-31T08:13:35;16.80;1.00
11577;DHT22;5844;51.496;6.788;2023-07-31T08:16:03;16.70;1.00
11577;DHT22;5844;51.496;6.788;2023-07-31T08:18:30;16.70;1.00
11577;DHT22;5844;51.496;6.788;2023-07-31T08:20:56;16.60;1.00
11577;DHT22;5844;51.496;6.788;2023-07-31T08:23:21;16.60;1.00
11577;DHT22;5844;51.496;6.788;2023-07-31T08:25:47;16.70;1.00
11577;DHT22;5844;51.496;6.788;2023-07-31T08:28:15;16.70;1.00
11577;DHT22;5844;51.496;6.788;2023-07-31T08:30:41;16.60;1.00
11577;DHT22;5844;51.496;6.788;2023-07-31T08:33:07;16.60;1.00
11577;DHT22;5844;51.496;6.788;2023-07-31T08:35:33;16.70;1.00
11577;DHT22;5844;51.496;6.788;2023-07-31T08:37:59;16.70;1.00
11577;DHT22;5844;51.496;6.788;2023-07-31T08:40:25;17.10;1.00
11577;DHT22;5844;51.496;6.788;2023-07-31T08:42:55;16.80;1.00
11577;DHT22;5844;51.496;6.788;2023-07-31T08:45:22;16.80;1.00
11577;DHT22;5844;51.496;6.788;2023-07-31T08:47:51;16.80;1.00
11577;DHT22;5844;51.496;6.788;2023-07-31T08:50:20;16.80;1.00
11577;DHT22;5844;51.496;6.788;2023-07-31T08:52:47;16.70;1.00
11577;DHT22;5844;51.496;6.788;2023-07-31T08:55:13;16.70;1.00
11577;DHT22;5844;51.496;6.788;2023-07-31T08:57:42;16.70;1.00
11577;DHT22;5844;51.496;6.788;2023-07-31T09:00:10;16.80;1.00
11577;DHT22;5844;51.496;6.788;2023-07-31T09:02:52;16.70;1.00
11577;DHT22;5844;51.496;6.788;2023-07-31T09:05:20;16.60;1.00
11577;DHT22;5844;51.496;6.788;2023-07-31T09:07:47;16.60;1.00
11577;DHT22;5844;51.496;6.788;2023-07-31T09:10:14;16.70;1.00
11577;DHT22;5844;51.496;6.788;2023-07-31T09:12:39;16.60;1.00
11577;DHT22;5844;51.496;6.788;2023-07-31T09:15:06;16.60;1.00
11577;DHT22;5844;51.496;6.788;2023-07-31T09:17:33;16.60;1.00
11577;DHT22;5844;51.496;6.788;2023-07-31T09:20:18;16.70;1.00
11577;DHT22;5844;51.496;6.788;2023-07-31T09:22:45;16.80;1.00
11577;DHT22;5844;51.496;6.788;2023-07-31T09:27:54;17.00;1.00
11577;DHT22;5844;51.496;6.788;2023-07-31T09:30:20;17.00;1.00
11577;DHT22;5844;51.496;6.788;2023-07-31T09:32:48;16.90;1.00
11577;DHT22;5844;51.496;6.788;2023-07-31T09:35:31;16.90;1.00
11577;DHT22;5844;51.496;6.788;2023-07-31T09:38:08;17.00;1.00
11577;DHT22;5844;51.496;6.788;2023-07-31T09:40:40;17.00;1.00
11577;DHT22;5844;51.496;6.788;2023-07-31T09:43:10;17.10;1.00
11577;DHT22;5844;51.496;6.788;2023-07-31T09:45:38;17.10;1.00
11577;DHT22;5844;51.496;6.788;2023-07-31T09:48:13;17.10;1.00
11577;DHT22;5844;51.496;6.788;2023-07-31T09:50:42;17.10;1.00
11577;DHT22;5844;51.496;6.788;2023-07-31T09:53:09;17.20;1.00
11577;DHT22;5844;51.496;6.788;2023-07-31T09:55:36;17.20;1.00
11577;DHT22;5844;51.496;6.788;2023-07-31T09:58:06;17.20;1.00
11577;DHT22;5844;51.496;6.788;2023-07-31T10:00:33;17.20;1.00
11577;DHT22;5844;51.496;6.788;2023-07-31T10:03:10;17.20;1.00
11577;DHT22;5844;51.496;6.788;2023-07-31T10:08:02;17.20;1.00
11577;DHT22;5844;51.496;6.788;2023-07-31T10:10:28;17.20;1.00
11577;DHT22;5844;51.496;6.788;2023-07-31T10:12:56;17.20;1.00
11577;DHT22;5844;51.496;6.788;2023-07-31T10:15:22;17.10;1.00
11577;DHT22;5844;51.496;6.788;2023-07-31T10:17:50;17.10;1.00
11577;DHT22;5844;51.496;6.788;2023-07-31T10:20:16;17.20;1.00
11577;DHT22;5844;51.496;6.788;2023-07-31T10:22:43;17.10;1.00
11577;DHT22;5844;51.496;6.788;2023-07-31T10:25:09;17.10;1.00
11577;DHT22;5844;51.496;6.788;2023-07-31T10:27:41;17.20;1.00
11577;DHT22;5844;51.496;6.788;2023-07-31T10:30:14;17.30;1.00
11577;DHT22;5844;51.496;6.788;2023-07-31T10:32:44;17.30;1.00
11577;DHT22;5844;51.496;6.788;2023-07-31T10:35:11;17.40;1.00
11577;DHT22;5844;51.496;6.788;2023-07-31T10:37:38;17.50;1.00
11577;DHT22;5844;51.496;6.788;2023-07-31T10:42:37;17.70;1.00
11577;DHT22;5844;51.496;6.788;2023-07-31T10:45:10;17.90;1.00
11577;DHT22;5844;51.496;6.788;2023-07-31T10:47:45;18.00;1.00
11577;DHT22;5844;51.496;6.788;2023-07-31T10:50:21;18.00;1.00
11577;DHT22;5844;51.496;6.788;2023-07-31T10:52:56;18.00;1.00
11577;DHT22;5844;51.496;6.788;2023-07-31T10:55:30;18.10;1.00
11577;DHT22;5844;51.496;6.788;2023-07-31T10:57:58;18.20;1.00
11577;DHT22;5844;51.496;6.788;2023-07-31T11:00:29;18.20;1.00
11577;DHT22;5844;51.496;6.788;2023-07-31T11:03:08;18.20;1.00
11577;DHT22;5844;51.496;6.788;2023-07-31T11:06:03;18.20;1.00
11577;DHT22;5844;51.496;6.788;2023-07-31T11:08:32;18.20;1.00
11577;DHT22;5844;51.496;6.788;2023-07-31T11:13:34;18.30;1.00
11577;DHT22;5844;51.496;6.788;2023-07-31T11:16:00;18.40;1.00
11577;DHT22;5844;51.496;6.788;2023-07-31T11:18:26;18.40;1.00
11577;DHT22;5844;51.496;6.788;2023-07-31T11:20:53;18.50;1.00
11577;DHT22;5844;51.496;6.788;2023-07-31T11:23:19;18.50;1.00
11577;DHT22;5844;51.496;6.788;2023-07-31T11:25:46;18.50;1.00
11577;DHT22;5844;51.496;6.788;2023-07-31T11:28:13;18.50;1.00
11577;DHT22;5844;51.496;6.788;2023-07-31T11:30:42;18.50;1.00
11577;DHT22;5844;51.496;6.788;2023-07-31T11:33:10;18.50;1.00
11577;DHT22;5844;51.496;6.788;2023-07-31T11:38:07;18.50;1.00
11577;DHT22;5844;51.496;6.788;2023-07-31T11:40:42;18.40;1.00
11577;DHT22;5844;51.496;6.788;2023-07-31T11:43:07;18.30;1.00
11577;DHT22;5844;51.496;6.788;2023-07-31T11:45:33;18.20;1.00
11577;DHT22;5844;51.496;6.788;2023-07-31T11:48:01;18.20;1.00
11577;DHT22;5844;51.496;6.788;2023-07-31T11:50:26;18.20;1.00
11577;DHT22;5844;51.496;6.788;2023-07-31T11:53:02;18.30;1.00
11577;DHT22;5844;51.496;6.788;2023-07-31T11:55:28;18.40;1.00
11577;DHT22;5844;51.496;6.788;2023-07-31T11:57:56;18.30;1.00
11577;DHT22;5844;51.496;6.788;2023-07-31T12:00:23;18.30;1.00
11577;DHT22;5844;51.496;6.788;2023-07-31T12:02:50;18.30;1.00
11577;DHT22;5844;51.496;6.788;2023-07-31T12:05:16;18.30;1.00
11577;DHT22;5844;51.496;6.788;2023-07-31T12:07:48;18.30;1.00
11577;DHT22;5844;51.496;6.788;2023-07-31T12:10:31;18.40;1.00
11577;DHT22;5844;51.496;6.788;2023-07-31T12:13:04;18.40;1.00
11577;DHT22;5844;51.496;6.788;2023-07-31T12:15:43;18.30;1.00
11577;DHT22;5844;51.496;6.788;2023-07-31T12:18:19;18.20;1.00
11577;DHT22;5844;51.496;6.788;2023-07-31T12:20:47;18.20;1.00
11577;DHT22;5844;51.496;6.788;2023-07-31T12:23:14;18.10;1.00
11577;DHT22;5844;51.496;6.788;2023-07-31T12:25:40;18.00;1.00
11577;DHT22;5844;51.496;6.788;2023-07-31T12:28:07;18.20;1.00
11577;DHT22;5844;51.496;6.788;2023-07-31T12:30:41;18.20;1.00
11577;DHT22;5844;51.496;6.788;2023-07-31T12:33:13;18.30;1.00
11577;DHT22;5844;51.496;6.788;2023-07-31T12:35:45;18.40;1.00
11577;DHT22;5844;51.496;6.788;2023-07-31T12:38:12;18.60;1.00
11577;DHT22;5844;51.496;6.788;2023-07-31T12:40:39;18.80;1.00
11577;DHT22;5844;51.496;6.788;2023-07-31T12:43:06;18.90;1.00
11577;DHT22;5844;51.496;6.788;2023-07-31T12:45:32;18.90;1.00
11577;DHT22;5844;51.496;6.788;2023-07-31T12:47:59;18.90;1.00
11577;DHT22;5844;51.496;6.788;2023-07-31T12:50:24;18.80;1.00
11577;DHT22;5844;51.496;6.788;2023-07-31T12:52:51;18.80;1.00
11577;DHT22;5844;51.496;6.788;2023-07-31T12:55:17;18.70;1.00
11577;DHT22;5844;51.496;6.788;2023-07-31T12:57:43;18.70;1.00
11577;DHT22;5844;51.496;6.788;2023-07-31T13:00:10;18.70;1.00
11577;DHT22;5844;51.496;6.788;2023-07-31T13:02:36;18.60;1.00
11577;DHT22;5844;51.496;6.788;2023-07-31T13:05:01;18.50;1.00
11577;DHT22;5844;51.496;6.788;2023-07-31T13:07:27;18.60;1.00
11577;DHT22;5844;51.496;6.788;2023-07-31T13:09:52;18.70;1.00
11577;DHT22;5844;51.496;6.788;2023-07-31T13:12:18;18.90;1.00
11577;DHT22;5844;51.496;6.788;2023-07-31T13:14:44;19.10;1.00
11577;DHT22;5844;51.496;6.788;2023-07-31T13:17:09;19.10;1.00
11577;DHT22;5844;51.496;6.788;2023-07-31T13:19:35;19.10;1.00
11577;DHT22;5844;51.496;6.788;2023-07-31T13:22:00;19.20;1.00
11577;DHT22;5844;51.496;6.788;2023-07-31T13:24:26;19.20;1.00
11577;DHT22;5844;51.496;6.788;2023-07-31T13:26:52;19.10;1.00
11577;DHT22;5844;51.496;6.788;2023-07-31T13:29:17;19.00;1.00
11577;DHT22;5844;51.496;6.788;2023-07-31T13:31:43;19.10;1.00
11577;DHT22;5844;51.496;6.788;2023-07-31T13:34:08;19.00;1.00
11577;DHT22;5844;51.496;6.788;2023-07-31T13:36:34;19.10;1.00
11577;DHT22;5844;51.496;6.788;2023-07-31T13:39:02;19.10;1.00
11577;DHT22;5844;51.496;6.788;2023-07-31T13:41:28;19.30;1.00
11577;DHT22;5844;51.496;6.788;2023-07-31T13:43:53;19.30;1.00
11577;DHT22;5844;51.496;6.788;2023-07-31T13:46:19;19.30;1.00
11577;DHT22;5844;51.496;6.788;2023-07-31T13:48:44;19.30;1.00
11577;DHT22;5844;51.496;6.788;2023-07-31T13:51:10;19.30;1.00
11577;DHT22;5844;51.496;6.788;2023-07-31T13:53:36;19.30;1.00
11577;DHT22;5844;51.496;6.788;2023-07-31T13:56:02;19.30;1.00
11577;DHT22;5844;51.496;6.788;2023-07-31T13:58:27;19.30;1.00
11577;DHT22;5844;51.496;6.788;2023-07-31T14:00:53;19.30;1.00
11577;DHT22;5844;51.496;6.788;2023-07-31T14:03:19;19.60;1.00
11577;DHT22;5844;51.496;6.788;2023-07-31T14:05:45;20.20;1.00
11577;DHT22;5844;51.496;6.788;2023-07-31T14:08:10;20.70;1.00
11577;DHT22;5844;51.496;6.788;2023-07-31T14:10:36;21.20;1.00
11577;DHT22;5844;51.496;6.788;2023-07-31T14:13:01;21.50;1.00
11577;DHT22;5844;51.496;6.788;2023-07-31T14:15:27;21.70;1.00
11577;DHT22;5844;51.496;6.788;2023-07-31T14:17:53;21.60;1.00
11577;DHT22;5844;51.496;6.788;2023-07-31T14:20:19;21.30;1.00
11577;DHT22;5844;51.496;6.788;2023-07-31T14:22:45;21.10;1.00
11577;DHT22;5844;51.496;6.788;2023-07-31T14:25:10;20.80;1.00
11577;DHT22;5844;51.496;6.788;2023-07-31T14:27:36;20.60;1.00
11577;DHT22;5844;51.496;6.788;2023-07-31T14:30:03;19.30;1.00
11577;DHT22;5844;51.496;6.788;2023-07-31T14:32:28;20.20;1.00
11577;DHT22;5844;51.496;6.788;2023-07-31T14:34:54;20.10;1.00
11577;DHT22;5844;51.496;6.788;2023-07-31T14:37:20;20.00;1.00
11577;DHT22;5844;51.496;6.788;2023-07-31T14:39:46;19.90;1.00
11577;DHT22;5844;51.496;6.788;2023-07-31T14:42:12;19.90;1.00
11577;DHT22;5844;51.496;6.788;2023-07-31T14:44:38;19.80;1.00
11577;DHT22;5844;51.496;6.788;2023-07-31T14:47:03;19.70;1.00
11577;DHT22;5844;51.496;6.788;2023-07-31T14:49:29;19.70;1.00
11577;DHT22;5844;51.496;6.788;2023-07-31T14:51:55;19.70;1.00
11577;DHT22;5844;51.496;6.788;2023-07-31T14:54:21;19.70;1.00
11577;DHT22;5844;51.496;6.788;2023-07-31T14:56:46;19.60;1.00
11577;DHT22;5844;51.496;6.788;2023-07-31T14:59:12;19.50;1.00
11577;DHT22;5844;51.496;6.788;2023-07-31T15:01:38;19.40;1.00
11577;DHT22;5844;51.496;6.788;2023-07-31T15:04:04;19.20;1.00
11577;DHT22;5844;51.496;6.788;2023-07-31T15:06:30;19.00;1.00
11577;DHT22;5844;51.496;6.788;2023-07-31T15:08:55;18.90;1.00
11577;DHT22;5844;51.496;6.788;2023-07-31T15:11:21;18.80;1.00
11577;DHT22;5844;51.496;6.788;2023-07-31T15:13:47;18.80;1.00
11577;DHT22;5844;51.496;6.788;2023-07-31T15:16:12;18.80;1.00
11577;DHT22;5844;51.496;6.788;2023-07-31T15:18:38;18.80;1.00
11577;DHT22;5844;51.496;6.788;2023-07-31T15:21:18;18.90;1.00
11577;DHT22;5844;51.496;6.788;2023-07-31T15:23:44;19.00;1.00
11577;DHT22;5844;51.496;6.788;2023-07-31T15:26:10;19.10;1.00
11577;DHT22;5844;51.496;6.788;2023-07-31T15:28:35;19.20;1.00
11577;DHT22;5844;51.496;6.788;2023-07-31T15:31:03;19.30;1.00
11577;DHT22;5844;51.496;6.788;2023-07-31T15:33:28;19.40;1.00
11577;DHT22;5844;51.496;6.788;2023-07-31T15:35:54;19.40;1.00
11577;DHT22;5844;51.496;6.788;2023-07-31T15:38:21;19.40;1.00
11577;DHT22;5844;51.496;6.788;2023-07-31T15:40:48;19.50;1.00
11577;DHT22;5844;51.496;6.788;2023-07-31T15:43:15;19.50;1.00
11577;DHT22;5844;51.496;6.788;2023-07-31T15:45:41;19.50;1.00
11577;DHT22;5844;51.496;6.788;2023-07-31T15:48:07;19.70;1.00
11577;DHT22;5844;51.496;6.788;2023-07-31T15:50:32;19.70;1.00
11577;DHT22;5844;51.496;6.788;2023-07-31T15:52:58;19.70;1.00
11577;DHT22;5844;51.496;6.788;2023-07-31T15:55:24;19.60;1.00
11577;DHT22;5844;51.496;6.788;2023-07-31T15:57:51;19.60;1.00
11577;DHT22;5844;51.496;6.788;2023-07-31T16:00:17;19.40;1.00
11577;DHT22;5844;51.496;6.788;2023-07-31T16:02:43;19.10;1.00
11577;DHT22;5844;51.496;6.788;2023-07-31T16:05:09;18.60;1.00
11577;DHT22;5844;51.496;6.788;2023-07-31T16:07:34;18.30;1.00
11577;DHT22;5844;51.496;6.788;2023-07-31T16:10:00;18.20;1.00
11577;DHT22;5844;51.496;6.788;2023-07-31T16:12:26;18.10;1.00
11577;DHT22;5844;51.496;6.788;2023-07-31T16:14:52;18.00;1.00
11577;DHT22;5844;51.496;6.788;2023-07-31T16:17:18;17.90;1.00